Time;durP1;ratioP1;P1;durP2;ratioP2;P2;SDS_P1;SDS_P2;PMS_P1;PMS_P2;Temp;Humidity;BMP_temperature;BMP_pressure;BME280_temperature;BME280_humidity;BME280_pressure;Samples;Min_cycle;Max_cycle;Signal;HPM_P1;HPM_P2
2024/04/06 00:02:46;;;;;;;1.30;0.40;;;;;;;16.24;63.09;100061.70;129762;1264;114745;-71
2024/04/06 00:05:47;;;;;;;2.90;0.30;;;;;;;16.20;62.92;100061.86;129854;1264;114957;-71
2024/04/06 00:08:50;;;;;;;1.30;0.50;;;;;;;16.14;62.95;100066.27;129730;1278;114793;-72
2024/04/06 00:11:51;;;;;;;1.80;0.50;;;;;;;16.07;62.75;100061.20;129766;1263;114936;-71
2024/04/06 00:14:53;;;;;;;0.90;0.20;;;;;;;16.00;62.81;100066.59;129859;1265;115210;-71
2024/04/06 00:17:55;;;;;;;1.70;0.40;;;;;;;15.92;62.74;100069.55;129610;1267;116273;-71
2024/04/06 00:20:57;;;;;;;2.00;0.50;;;;;;;15.86;62.36;100078.80;129873;1259;114759;-74
2024/04/06 00:23:58;;;;;;;1.70;0.50;;;;;;;15.82;62.33;100075.31;129862;1259;114738;-73
2024/04/06 00:27:01;;;;;;;1.60;0.40;;;;;;;15.77;62.30;100085.35;129478;1281;127879;-73
2024/04/06 00:30:03;;;;;;;1.30;0.40;;;;;;;15.74;62.31;100088.15;129702;1264;114829;-72
2024/04/06 00:33:05;;;;;;;1.10;0.40;;;;;;;15.70;62.42;100096.20;129692;1259;115194;-72
2024/04/06 00:36:07;;;;;;;1.30;0.40;;;;;;;15.65;62.60;100094.52;129780;1277;115135;-72
2024/04/06 00:39:09;;;;;;;1.60;0.30;;;;;;;15.60;62.72;100099.97;129734;1281;114701;-71
2024/04/06 00:42:11;;;;;;;1.60;0.70;;;;;;;15.54;62.58;100108.34;129686;1281;114775;-71
2024/04/06 00:45:12;;;;;;;1.20;0.40;;;;;;;15.46;62.59;100115.05;129890;1263;114849;-71
2024/04/06 00:48:14;;;;;;;1.10;0.40;;;;;;;15.36;62.63;100122.20;129478;1266;127905;-73
2024/04/06 00:51:16;;;;;;;1.40;0.30;;;;;;;15.27;63.01;100123.06;129395;1263;115411;-72
2024/04/06 00:54:18;;;;;;;1.10;0.50;;;;;;;15.17;63.11;100126.46;129742;1259;114821;-72
2024/04/06 00:57:20;;;;;;;1.20;0.60;;;;;;;15.06;63.24;100130.48;129775;1265;114814;-70
2024/04/06 01:00:22;;;;;;;3.70;0.40;;;;;;;14.95;63.64;100135.06;129918;1263;115121;-71
2024/04/06 01:03:23;;;;;;;1.20;0.50;;;;;;;14.84;63.88;100137.61;129966;1264;114772;-71
2024/04/06 01:06:25;;;;;;;1.50;0.60;;;;;;;14.72;64.14;100141.86;129810;1264;114814;-71
2024/04/06 01:09:27;;;;;;;1.80;0.80;;;;;;;14.59;64.39;100149.39;129796;1263;114691;-70
2024/04/06 01:12:32;;;;;;;1.30;0.30;;;;;;;14.47;64.84;100151.79;129826;1262;114835;-69
2024/04/06 01:15:34;;;;;;;1.60;0.70;;;;;;;14.35;65.26;100154.20;129509;1270;114755;-71
2024/04/06 01:18:36;;;;;;;1.60;0.70;;;;;;;14.26;65.18;100159.33;129885;1262;114878;-71
2024/04/06 01:21:38;;;;;;;1.70;0.70;;;;;;;14.15;65.53;100158.25;129929;1263;116413;-70
2024/04/06 01:24:40;;;;;;;1.20;0.60;;;;;;;14.05;65.92;100159.84;129527;1259;114821;-70
2024/04/06 01:27:41;;;;;;;2.30;0.70;;;;;;;13.95;66.12;100166.19;129793;1264;114743;-71
2024/04/06 01:30:43;;;;;;;1.70;0.40;;;;;;;13.87;66.53;100171.21;129851;1265;114789;-71
2024/04/06 01:33:49;;;;;;;2.00;0.50;;;;;;;13.78;66.68;100166.23;129882;1259;127367;-70
2024/04/06 01:36:51;;;;;;;1.70;0.70;;;;;;;13.68;67.05;100167.59;129814;1259;114756;-70
2024/04/06 01:39:53;;;;;;;2.10;0.80;;;;;;;13.59;67.37;100168.74;129787;1264;114812;-71
2024/04/06 01:42:55;;;;;;;1.70;0.80;;;;;;;13.49;67.65;100166.65;129837;1273;114822;-71
2024/04/06 01:45:57;;;;;;;2.60;1.00;;;;;;;13.40;67.88;100175.48;129609;1263;115031;-66
2024/04/06 01:49:00;;;;;;;3.10;1.10;;;;;;;13.32;68.18;100177.75;129864;1281;114955;-66
2024/04/06 01:52:02;;;;;;;1.30;0.60;;;;;;;13.22;68.39;100181.20;129734;1259;115386;-66
2024/04/06 01:55:05;;;;;;;3.00;0.80;;;;;;;13.14;68.46;100186.40;129792;1258;114756;-70
2024/04/06 01:58:07;;;;;;;2.20;0.80;;;;;;;13.04;68.86;100182.52;129980;1281;114756;-70
2024/04/06 02:01:09;;;;;;;2.70;1.20;;;;;;;12.94;69.08;100189.60;129908;1259;114812;-69
2024/04/06 02:04:10;;;;;;;5.00;1.90;;;;;;;12.85;69.37;100197.09;129857;1264;114844;-70
2024/04/06 02:07:16;;;;;;;3.30;1.40;;;;;;;12.78;69.71;100197.17;129519;1263;114911;-69
2024/04/06 02:10:17;;;;;;;3.30;1.20;;;;;;;12.71;69.89;100197.80;129538;1259;224038;-65
2024/04/06 02:13:19;;;;;;;2.70;1.40;;;;;;;12.64;70.11;100199.11;129794;1281;114826;-71
2024/04/06 02:16:21;;;;;;;2.30;1.10;;;;;;;12.57;70.20;100199.30;129821;1259;114817;-68
2024/04/06 02:19:23;;;;;;;3.10;1.20;;;;;;;12.53;70.42;100204.05;129839;1259;114771;-66
2024/04/06 02:22:24;;;;;;;3.50;1.10;;;;;;;12.47;70.50;100208.90;129782;1264;115390;-67
2024/04/06 02:25:26;;;;;;;3.30;1.00;;;;;;;12.41;70.98;100214.41;129792;1259;115330;-70
2024/04/06 02:28:28;;;;;;;3.10;1.40;;;;;;;12.35;70.79;100214.20;129613;1281;116538;-70
2024/04/06 02:31:30;;;;;;;4.70;1.00;;;;;;;12.28;71.30;100217.84;129733;1264;114712;-71
2024/04/06 02:34:32;;;;;;;3.90;1.10;;;;;;;12.23;71.58;100218.71;129707;1264;115199;-70
2024/04/06 02:37:33;;;;;;;2.90;0.90;;;;;;;12.16;71.86;100226.05;129459;1264;127510;-68
2024/04/06 02:40:35;;;;;;;3.00;0.80;;;;;;;12.12;72.12;100232.55;129769;1264;114808;-64
2024/04/06 02:43:37;;;;;;;3.40;1.30;;;;;;;12.08;72.56;100234.74;129751;1265;114755;-70
2024/04/06 02:46:38;;;;;;;3.10;1.20;;;;;;;12.04;72.80;100233.90;129691;1281;114720;-69
2024/04/06 02:49:41;;;;;;;2.70;0.80;;;;;;;11.99;72.47;100233.27;129685;1259;114836;-69
2024/04/06 02:52:43;;;;;;;1.60;0.70;;;;;;;11.94;72.95;100230.83;129798;1263;115336;-70
2024/04/06 02:55:44;;;;;;;4.20;1.40;;;;;;;11.91;72.95;100227.80;129514;1267;114733;-68
2024/04/06 02:58:46;;;;;;;6.70;1.80;;;;;;;11.87;73.22;100227.83;129878;1264;114854;-70
2024/04/06 03:01:48;;;;;;;3.60;1.30;;;;;;;11.83;73.35;100229.48;129864;1263;115291;-70
2024/04/06 03:04:51;;;;;;;3.20;1.20;;;;;;;11.79;73.56;100227.02;129599;1264;115446;-70
2024/04/06 03:07:52;;;;;;;8.40;2.80;;;;;;;11.75;73.41;100225.83;129783;1263;114847;-69
2024/04/06 03:10:54;;;;;;;7.20;3.20;;;;;;;11.71;73.67;100227.11;129821;1264;114727;-68
2024/04/06 03:13:56;;;;;;;6.50;1.80;;;;;;;11.68;73.56;100234.58;129761;1259;114756;-71
2024/04/06 03:16:58;;;;;;;4.10;1.70;;;;;;;11.65;73.91;100239.45;129799;1265;114707;-69
2024/04/06 03:20:00;;;;;;;3.90;1.00;;;;;;;11.61;73.94;100237.50;129756;1263;114760;-68
2024/04/06 03:23:03;;;;;;;2.20;1.10;;;;;;;11.54;74.24;100236.27;129513;1259;127916;-69
2024/04/06 03:26:05;;;;;;;2.90;1.10;;;;;;;11.49;74.71;100244.05;129622;1273;116525;-70
2024/04/06 03:29:07;;;;;;;2.50;1.20;;;;;;;11.44;75.14;100251.52;129727;1259;114766;-70
2024/04/06 03:32:08;;;;;;;1.90;0.80;;;;;;;11.38;75.34;100253.02;129808;1259;114741;-68
2024/04/06 03:35:10;;;;;;;2.10;0.80;;;;;;;11.34;75.46;100257.52;129815;1264;114759;-67
2024/04/06 03:38:12;;;;;;;2.10;1.10;;;;;;;11.31;75.82;100257.73;129757;1265;114823;-67
2024/04/06 03:41:14;;;;;;;2.80;1.00;;;;;;;11.29;76.08;100256.24;130052;1265;114795;-66
2024/04/06 03:44:16;;;;;;;1.80;0.90;;;;;;;11.25;76.56;100253.40;129703;1265;128905;-66
2024/04/06 03:47:17;;;;;;;3.50;1.40;;;;;;;11.22;76.86;100262.11;129840;1263;114762;-68
2024/04/06 03:50:23;;;;;;;1.60;0.70;;;;;;;11.19;76.68;100268.33;129774;1274;114758;-66
2024/04/06 03:53:33;;;;;;;4.00;1.60;;;;;;;11.18;77.18;100265.90;129793;1264;115387;-67
2024/04/06 03:56:35;;;;;;;3.30;1.50;;;;;;;11.19;77.13;100269.64;129665;1263;114866;-66
2024/04/06 03:59:37;;;;;;;7.00;1.30;;;;;;;11.19;77.34;100272.83;129888;1259;114748;-70
2024/04/06 04:02:39;;;;;;;4.70;1.20;;;;;;;11.19;77.48;100277.48;129899;1264;114817;-66
2024/04/06 04:05:41;;;;;;;4.30;1.80;;;;;;;11.19;77.48;100278.38;129795;1281;128893;-69
2024/04/06 04:08:46;;;;;;;4.60;1.80;;;;;;;11.16;77.38;100276.92;129733;1260;115396;-69
2024/04/06 04:11:47;;;;;;;4.10;2.30;;;;;;;11.14;77.27;100278.80;129754;1259;114816;-67
2024/04/06 04:14:49;;;;;;;6.90;2.10;;;;;;;11.12;77.75;100286.60;129560;1263;115417;-70
2024/04/06 04:17:51;;;;;;;4.40;2.00;;;;;;;11.11;77.87;100293.06;129648;1281;114840;-68
2024/04/06 04:20:53;;;;;;;4.00;2.30;;;;;;;11.10;77.93;100297.95;129802;1263;114755;-67
2024/04/06 04:23:55;;;;;;;4.90;2.90;;;;;;;11.08;78.15;100302.19;129719;1264;114866;-68
2024/04/06 04:26:57;;;;;;;8.60;3.00;;;;;;;11.06;78.09;100306.55;129850;1264;115140;-68
2024/04/06 04:29:59;;;;;;;8.10;3.10;;;;;;;11.05;78.01;100303.04;129488;1281;114774;-67
2024/04/06 04:33:01;;;;;;;6.10;3.30;;;;;;;11.05;78.46;100300.91;129537;1263;114763;-68
2024/04/06 04:36:04;;;;;;;5.60;3.10;;;;;;;11.04;78.26;100301.99;129900;1281;114795;-68
2024/04/06 04:39:05;;;;;;;7.10;3.10;;;;;;;11.05;78.28;100305.73;129740;1263;114745;-68
2024/04/06 04:42:07;;;;;;;6.00;2.10;;;;;;;11.05;78.01;100304.84;129727;1263;114758;-69
2024/04/06 04:45:14;;;;;;;5.20;2.20;;;;;;;11.06;78.13;100311.76;129829;1275;114779;-68
2024/04/06 04:48:15;;;;;;;4.40;2.10;;;;;;;11.06;78.25;100318.17;129460;1264;127893;-68
2024/04/06 04:51:19;;;;;;;3.50;2.10;;;;;;;11.08;78.34;100318.98;129770;1273;114755;-69
2024/04/06 04:54:21;;;;;;;3.40;1.70;;;;;;;11.10;78.38;100322.42;129997;1259;114775;-69
2024/04/06 04:57:23;;;;;;;3.20;1.70;;;;;;;11.14;78.66;100326.36;129867;1273;114760;-69
2024/04/06 05:00:25;;;;;;;5.20;1.90;;;;;;;11.19;78.53;100328.23;129518;1265;114805;-69
2024/04/06 05:03:26;;;;;;;3.40;1.90;;;;;;;11.25;78.58;100328.27;129722;1262;114723;-70
2024/04/06 05:06:28;;;;;;;2.80;1.50;;;;;;;11.33;78.68;100327.55;129774;1259;114756;-70
2024/04/06 05:09:30;;;;;;;4.50;1.60;;;;;;;11.41;78.45;100327.98;129587;1281;127909;-67
2024/04/06 05:12:32;;;;;;;3.40;1.70;;;;;;;11.51;78.71;100330.16;129667;1265;114822;-69
2024/04/06 05:15:34;;;;;;;3.40;2.10;;;;;;;11.62;78.79;100333.86;129737;1259;115220;-68
2024/04/06 05:18:35;;;;;;;3.20;1.60;;;;;;;11.74;78.80;100335.92;129557;1267;114930;-68
2024/04/06 05:21:37;;;;;;;3.80;1.90;;;;;;;11.86;78.85;100334.56;129758;1264;114821;-69
2024/04/06 05:24:40;;;;;;;4.70;1.90;;;;;;;11.99;79.11;100336.91;129617;1281;114733;-70
2024/04/06 05:27:42;;;;;;;5.10;1.50;;;;;;;12.16;78.76;100344.23;129730;1264;114822;-70
2024/04/06 05:30:48;;;;;;;3.60;1.90;;;;;;;12.34;79.08;100347.16;129741;1263;114878;-70
2024/04/06 05:33:49;;;;;;;3.50;1.90;;;;;;;12.54;79.00;100351.23;129753;1264;115001;-68
2024/04/06 05:36:53;;;;;;;4.90;2.00;;;;;;;12.76;79.40;100351.10;129778;1264;115392;-68
2024/04/06 05:39:55;;;;;;;4.30;1.70;;;;;;;12.97;79.19;100349.15;129707;1259;114746;-70
2024/04/06 05:42:57;;;;;;;4.40;1.80;;;;;;;13.19;79.01;100348.40;129491;1265;114954;-70
2024/04/06 05:46:03;;;;;;;2.80;1.10;;;;;;;13.40;78.90;100356.14;129584;1259;114839;-70
2024/04/06 05:49:08;;;;;;;4.80;1.60;;;;;;;13.59;78.56;100362.88;129833;1263;128465;-71
2024/04/06 05:52:10;;;;;;;3.30;1.50;;;;;;;13.78;78.38;100364.23;129578;1259;114835;-68
2024/04/06 05:55:12;;;;;;;6.60;1.90;;;;;;;13.98;78.15;100371.83;129710;1265;114750;-71
2024/04/06 05:58:13;;;;;;;4.10;2.00;;;;;;;14.21;77.92;100366.76;129754;1281;115489;-70
2024/04/06 06:01:15;;;;;;;5.90;1.10;;;;;;;14.47;77.89;100367.80;129570;1266;114887;-71
2024/04/06 06:04:17;;;;;;;3.60;1.60;;;;;;;14.66;77.48;100366.77;129679;1263;114814;-72
2024/04/06 06:07:20;;;;;;;3.90;1.30;;;;;;;14.79;76.93;100366.81;129834;1273;114827;-69
2024/04/06 06:10:22;;;;;;;3.50;1.50;;;;;;;14.92;76.56;100363.66;129754;1265;127532;-70
2024/04/06 06:13:24;;;;;;;3.20;1.20;;;;;;;15.09;76.39;100369.00;129841;1265;114822;-71
2024/04/06 06:16:26;;;;;;;4.60;1.40;;;;;;;15.28;76.26;100373.45;129785;1272;114861;-71
2024/04/06 06:19:27;;;;;;;3.70;1.60;;;;;;;15.46;76.03;100377.23;129743;1265;114946;-70
2024/04/06 06:22:29;;;;;;;3.60;1.20;;;;;;;15.68;75.55;100379.34;129699;1263;114804;-70
2024/04/06 06:25:31;;;;;;;3.10;1.70;;;;;;;15.92;75.25;100370.30;129805;1259;114762;-71
2024/04/06 06:28:33;;;;;;;6.10;1.40;;;;;;;16.21;74.96;100359.61;129482;1281;114816;-71
2024/04/06 06:31:35;;;;;;;2.70;1.40;;;;;;;16.43;74.13;100367.06;129834;1265;114827;-71
2024/04/06 06:34:37;;;;;;;4.40;1.60;;;;;;;16.66;73.93;100361.23;129476;1275;114898;-71
2024/04/06 06:37:39;;;;;;;3.10;1.70;;;;;;;16.88;73.25;100356.55;129801;1259;115304;-72
2024/04/06 06:40:41;;;;;;;3.90;1.30;;;;;;;17.09;73.00;100356.77;129409;1273;114745;-72
2024/04/06 06:43:43;;;;;;;4.60;1.40;;;;;;;17.32;72.32;100353.38;129772;1264;115293;-72
2024/04/06 06:46:45;;;;;;;5.10;1.40;;;;;;;17.56;71.80;100356.83;129445;1263;114998;-71
2024/04/06 06:49:47;;;;;;;3.00;1.30;;;;;;;17.83;71.49;100361.89;129745;1276;115209;-72
2024/04/06 06:52:48;;;;;;;3.20;1.40;;;;;;;18.14;70.84;100362.59;129727;1263;114754;-72
2024/04/06 06:55:50;;;;;;;4.60;1.70;;;;;;;18.41;70.11;100358.23;129676;1259;128847;-73
2024/04/06 06:58:52;;;;;;;3.70;1.30;;;;;;;18.76;69.82;100359.73;129849;1263;114768;-71
2024/04/06 07:01:54;;;;;;;2.50;1.00;;;;;;;19.09;68.74;100365.19;129787;1281;114775;-73
2024/04/06 07:04:56;;;;;;;3.40;1.10;;;;;;;19.35;67.90;100370.71;129555;1264;114919;-72
2024/04/06 07:07:59;;;;;;;4.10;1.00;;;;;;;19.66;67.34;100371.57;129900;1263;114802;-71
2024/04/06 07:11:04;;;;;;;2.70;0.80;;;;;;;20.00;66.40;100374.19;129665;1264;115365;-71
2024/04/06 07:14:06;;;;;;;3.00;1.00;;;;;;;20.30;65.72;100378.10;129548;1267;128025;-72
2024/04/06 07:17:08;;;;;;;3.90;0.90;;;;;;;20.63;65.39;100379.70;129681;1264;115327;-71
2024/04/06 07:20:10;;;;;;;2.50;0.90;;;;;;;20.98;63.64;100375.46;129707;1264;114909;-70
2024/04/06 07:23:11;;;;;;;3.30;1.00;;;;;;;21.18;62.93;100380.35;129645;1267;114855;-72
2024/04/06 07:26:13;;;;;;;7.40;0.80;;;;;;;21.36;61.87;100384.16;129676;1271;114760;-64
2024/04/06 07:29:15;;;;;;;4.40;0.90;;;;;;;21.49;61.48;100381.63;129367;1259;115205;-64
2024/04/06 07:32:17;;;;;;;4.30;0.80;;;;;;;21.62;60.49;100377.90;129390;1281;115043;-62
2024/04/06 07:35:19;;;;;;;4.20;1.20;;;;;;;21.86;59.93;100379.27;129541;1264;114791;-63
2024/04/06 07:38:21;;;;;;;5.60;0.80;;;;;;;22.17;59.41;100371.25;129543;1273;114883;-64
2024/04/06 07:41:22;;;;;;;5.00;1.10;;;;;;;22.36;58.35;100373.00;129354;1267;114812;-66
2024/04/06 07:44:24;;;;;;;8.30;1.30;;;;;;;22.51;57.78;100371.34;129583;1274;114682;-65
2024/04/06 07:47:28;;;;;;;2.50;1.00;;;;;;;22.63;56.87;100376.78;129678;1274;114696;-65
2024/04/06 07:50:30;;;;;;;3.70;0.70;;;;;;;22.63;56.15;100373.86;129355;1266;114782;-65
2024/04/06 07:53:32;;;;;;;2.80;1.00;;;;;;;22.64;55.77;100375.58;129547;1264;115463;-65
2024/04/06 07:56:34;;;;;;;3.30;0.70;;;;;;;22.71;55.66;100378.28;129439;1259;114814;-65
2024/04/06 07:59:37;;;;;;;2.00;0.70;;;;;;;22.81;55.08;100378.58;129374;1281;128406;-63
2024/04/06 08:02:43;;;;;;;4.60;1.00;;;;;;;22.86;54.66;100381.55;129399;1281;114833;-64
2024/04/06 08:05:50;;;;;;;2.90;0.90;;;;;;;22.86;54.33;100376.42;129461;1264;114778;-64
2024/04/06 08:08:52;;;;;;;3.10;0.90;;;;;;;22.87;53.72;100380.13;129299;1280;115212;-65
2024/04/06 08:11:54;;;;;;;5.60;1.10;;;;;;;22.87;53.83;100381.27;129579;1264;114841;-64
2024/04/06 08:14:55;;;;;;;1.50;0.60;;;;;;;22.93;53.44;100387.63;129726;1263;115210;-65
2024/04/06 08:17:58;;;;;;;2.60;1.00;;;;;;;23.02;53.26;100394.77;129218;1281;128616;-65
2024/04/06 08:21:00;;;;;;;5.40;0.80;;;;;;;23.14;52.77;100397.27;129705;1263;115190;-65
2024/04/06 08:24:02;;;;;;;4.70;0.90;;;;;;;23.27;52.85;100398.41;129719;1264;115172;-64
2024/04/06 08:27:04;;;;;;;4.30;0.90;;;;;;;23.45;52.49;100395.73;129408;1263;115191;-63
2024/04/06 08:30:09;;;;;;;3.60;0.80;;;;;;;23.72;51.97;100392.14;129765;1263;114786;-64
2024/04/06 08:33:11;;;;;;;3.70;1.10;;;;;;;24.07;51.69;100394.06;129511;1272;114733;-64
2024/04/06 08:36:13;;;;;;;3.00;0.90;;;;;;;24.42;50.97;100394.98;129399;1264;114824;-64
2024/04/06 08:39:15;;;;;;;2.30;0.80;;;;;;;24.80;50.83;100387.98;129562;1260;114838;-65
2024/04/06 08:42:19;;;;;;;2.00;0.80;;;;;;;25.05;50.13;100386.91;129387;1265;114849;-64
2024/04/06 08:45:22;;;;;;;2.30;0.70;;;;;;;25.16;49.42;100388.44;129419;1264;114864;-65
2024/04/06 08:48:27;;;;;;;2.20;0.70;;;;;;;25.15;49.23;100388.76;129673;1263;114815;-64
2024/04/06 08:51:31;;;;;;;3.10;0.90;;;;;;;25.21;48.97;100383.48;129344;1273;114809;-65
2024/04/06 08:54:33;;;;;;;2.50;0.70;;;;;;;25.31;48.61;100384.02;129219;1267;119977;-64
2024/04/06 08:57:40;;;;;;;3.40;0.90;;;;;;;25.24;48.04;100385.19;129473;1273;114992;-65
2024/04/06 09:00:42;;;;;;;3.40;0.90;;;;;;;25.00;47.71;100389.10;129510;1274;116281;-65
2024/04/06 09:03:44;;;;;;;3.00;0.80;;;;;;;24.81;47.53;100392.25;129574;1267;114831;-64
2024/04/06 09:06:46;;;;;;;2.60;0.60;;;;;;;24.61;47.32;100393.09;129784;1281;114675;-65
2024/04/06 09:09:49;;;;;;;2.70;0.80;;;;;;;24.46;47.25;100391.17;129587;1272;114829;-64
2024/04/06 09:12:51;;;;;;;4.20;0.80;;;;;;;24.34;47.32;100395.25;129522;1273;114879;-64
2024/04/06 09:15:53;;;;;;;3.60;0.80;;;;;;;24.33;46.98;100388.78;129434;1263;114752;-64
2024/04/06 09:18:55;;;;;;;2.90;1.10;;;;;;;24.36;47.16;100384.23;129458;1265;114770;-64
2024/04/06 09:21:57;;;;;;;1.80;0.60;;;;;;;24.39;46.94;100384.82;129365;1264;114838;-63
2024/04/06 09:25:07;;;;;;;1.70;0.50;;;;;;;24.50;47.16;100384.59;129440;1264;115179;-65
2024/04/06 09:28:10;;;;;;;2.20;0.70;;;;;;;24.68;46.91;100380.14;129529;1272;114772;-63
2024/04/06 09:31:22;;;;;;;3.30;0.80;;;;;;;24.68;46.52;100377.14;129259;1272;127703;-64
2024/04/06 09:34:25;;;;;;;1.70;0.60;;;;;;;24.72;46.31;100368.73;129359;1262;114762;-64
2024/04/06 09:37:34;;;;;;;2.90;0.70;;;;;;;24.79;46.22;100368.72;129420;1264;115274;-63
2024/04/06 09:40:40;;;;;;;2.10;0.50;;;;;;;24.83;46.19;100369.03;129490;1267;114926;-63
2024/04/06 09:43:45;;;;;;;2.90;0.70;;;;;;;24.83;45.60;100374.73;129546;1263;114839;-64
2024/04/06 09:46:49;;;;;;;2.40;0.50;;;;;;;24.83;45.98;100374.82;129533;1277;129694;-64
2024/04/06 09:49:51;;;;;;;2.30;0.50;;;;;;;24.87;45.73;100371.82;129225;1265;114978;-63
2024/04/06 09:52:54;;;;;;;2.50;0.70;;;;;;;24.95;45.65;100374.70;129509;1272;114793;-64
2024/04/06 09:55:56;;;;;;;3.00;0.60;;;;;;;24.97;45.37;100370.23;129523;1260;114758;-63
2024/04/06 09:58:59;;;;;;;2.20;0.80;;;;;;;24.89;45.03;100368.33;129403;1277;114753;-64
2024/04/06 10:02:02;;;;;;;1.90;0.50;;;;;;;24.76;45.00;100364.23;129401;1272;114827;-63
2024/04/06 10:05:07;;;;;;;2.60;0.60;;;;;;;24.64;44.87;100355.29;129364;1279;129004;-63
2024/04/06 10:08:11;;;;;;;1.80;0.50;;;;;;;24.59;45.22;100356.95;129165;1281;114830;-65
2024/04/06 10:11:18;;;;;;;3.40;0.60;;;;;;;24.61;45.28;100354.80;129392;1272;114763;-65
2024/04/06 10:14:22;;;;;;;5.60;0.70;;;;;;;24.62;45.16;100352.21;129397;1264;115074;-66
2024/04/06 10:17:24;;;;;;;2.50;0.70;;;;;;;24.55;44.99;100342.23;129896;1272;114740;-67
2024/04/06 10:20:28;;;;;;;3.50;0.60;;;;;;;24.45;44.96;100341.27;129385;1264;114811;-70
2024/04/06 10:23:41;;;;;;;3.60;0.70;;;;;;;24.40;45.30;100341.84;129793;1273;114835;-72
2024/04/06 10:26:47;;;;;;;3.70;0.70;;;;;;;24.37;45.25;100345.66;129565;1267;114981;-69
2024/04/06 10:29:49;;;;;;;2.20;0.50;;;;;;;24.37;45.16;100343.63;129537;1267;114896;-71
2024/04/06 10:32:52;;;;;;;2.80;0.70;;;;;;;24.43;45.20;100341.88;129641;1264;114826;-72
2024/04/06 10:35:55;;;;;;;2.60;0.80;;;;;;;24.45;44.66;100348.18;129752;1263;114787;-72
2024/04/06 10:38:57;;;;;;;3.40;0.60;;;;;;;24.40;44.62;100356.04;129719;1262;114765;-72
2024/04/06 10:42:04;;;;;;;0.90;0.30;;;;;;;24.39;44.30;100361.86;129755;1264;114752;-64
2024/04/06 10:45:08;;;;;;;4.00;0.60;;;;;;;24.35;44.05;100353.17;129355;1273;114756;-64
2024/04/06 10:48:10;;;;;;;1.80;0.80;;;;;;;24.38;44.01;100349.66;129561;1272;114834;-66
2024/04/06 10:51:13;;;;;;;2.60;0.80;;;;;;;24.50;44.10;100350.08;129775;1264;114849;-64
2024/04/06 10:54:15;;;;;;;1.90;0.60;;;;;;;24.61;43.88;100350.70;129593;1281;114816;-66
2024/04/06 10:57:22;;;;;;;2.20;0.80;;;;;;;24.74;44.18;100346.23;129771;1265;114787;-66
2024/04/06 11:00:26;;;;;;;2.60;0.70;;;;;;;24.95;44.15;100339.15;129441;1264;114746;-65
2024/04/06 11:03:29;;;;;;;2.10;0.90;;;;;;;25.13;44.06;100335.22;129232;1264;115329;-65
2024/04/06 11:06:31;;;;;;;1.90;0.50;;;;;;;25.28;44.32;100330.77;129464;1263;115278;-66
2024/04/06 11:09:36;;;;;;;3.40;1.10;;;;;;;25.44;44.38;100338.97;129319;1273;116871;-64
2024/04/06 11:12:39;;;;;;;1.20;0.70;;;;;;;25.55;44.17;100336.05;129338;1266;119918;-65
2024/04/06 11:15:41;;;;;;;2.00;0.60;;;;;;;25.59;44.02;100339.46;129569;1275;114741;-65
2024/04/06 11:18:47;;;;;;;3.40;0.80;;;;;;;25.64;43.93;100338.95;129516;1263;114705;-65
2024/04/06 11:21:49;;;;;;;3.60;0.80;;;;;;;25.76;43.91;100344.31;129644;1261;114787;-64
2024/04/06 11:24:52;;;;;;;1.90;0.80;;;;;;;25.89;43.75;100341.20;129488;1271;114835;-64
2024/04/06 11:27:54;;;;;;;2.20;0.90;;;;;;;26.03;43.92;100339.77;129507;1272;114762;-64
2024/04/06 11:30:59;;;;;;;2.30;0.80;;;;;;;26.09;43.79;100343.85;129800;1265;114745;-63
2024/04/06 11:34:01;;;;;;;1.90;0.70;;;;;;;26.16;43.54;100350.86;129451;1261;115331;-65
2024/04/06 11:37:04;;;;;;;4.80;1.10;;;;;;;26.18;43.45;100352.80;129429;1261;114766;-63
2024/04/06 11:40:10;;;;;;;2.60;1.00;;;;;;;26.20;43.30;100348.71;129543;1263;116412;-65
2024/04/06 11:43:12;;;;;;;4.00;0.90;;;;;;;26.21;43.19;100349.54;129342;1264;116685;-64
2024/04/06 11:46:14;;;;;;;1.90;0.90;;;;;;;26.18;43.19;100351.11;129539;1261;114761;-64
2024/04/06 11:49:16;;;;;;;5.10;1.00;;;;;;;26.16;43.04;100349.67;129707;1263;114770;-64
2024/04/06 11:52:18;;;;;;;1.50;0.70;;;;;;;26.16;43.02;100344.05;129502;1265;114778;-64
2024/04/06 11:55:20;;;;;;;2.20;0.60;;;;;;;26.20;42.83;100341.02;129433;1263;114804;-63
2024/04/06 11:58:23;;;;;;;2.20;0.80;;;;;;;26.24;43.02;100343.34;129381;1277;115064;-65
2024/04/06 12:01:27;;;;;;;1.70;0.50;;;;;;;26.27;42.77;100340.96;129459;1272;115418;-63
2024/04/06 12:04:34;;;;;;;2.30;0.90;;;;;;;26.24;42.55;100339.45;129545;1261;115237;-64
2024/04/06 12:07:39;;;;;;;1.30;0.50;;;;;;;26.19;42.46;100342.39;129484;1264;118978;-64
2024/04/06 12:10:42;;;;;;;1.70;0.60;;;;;;;26.03;42.38;100344.79;129742;1261;114739;-63
2024/04/06 12:13:45;;;;;;;2.30;0.40;;;;;;;25.83;42.38;100343.51;129412;1264;114868;-64
2024/04/06 12:16:50;;;;;;;1.50;0.60;;;;;;;25.67;42.37;100340.55;129432;1266;114727;-65
2024/04/06 12:19:52;;;;;;;3.20;0.70;;;;;;;25.50;42.57;100340.45;129434;1272;115222;-64
2024/04/06 12:22:55;;;;;;;1.50;0.70;;;;;;;25.38;42.79;100347.45;129367;1269;115248;-65
2024/04/06 12:25:58;;;;;;;3.40;0.60;;;;;;;25.26;42.73;100349.48;129633;1281;114769;-65
2024/04/06 12:29:00;;;;;;;1.90;0.50;;;;;;;25.21;42.94;100348.94;129221;1270;114877;-64
2024/04/06 12:32:02;;;;;;;1.60;0.40;;;;;;;25.23;43.00;100349.67;129455;1264;114824;-64
2024/04/06 12:35:04;;;;;;;2.20;0.50;;;;;;;25.29;42.96;100350.64;129783;1262;114736;-64
2024/04/06 12:38:07;;;;;;;6.60;0.50;;;;;;;25.33;42.90;100354.55;129537;1266;115523;-65
2024/04/06 12:41:09;;;;;;;3.10;0.60;;;;;;;25.24;42.43;100358.35;129669;1264;114752;-63
2024/04/06 12:44:12;;;;;;;1.50;0.50;;;;;;;25.09;42.54;100356.70;129653;1264;114784;-65
2024/04/06 12:47:14;;;;;;;2.70;0.50;;;;;;;24.95;42.60;100351.86;129769;1259;114758;-65
2024/04/06 12:50:17;;;;;;;2.70;0.70;;;;;;;24.76;42.79;100348.73;129283;1263;114949;-65
2024/04/06 12:53:19;;;;;;;1.60;0.80;;;;;;;24.56;42.90;100346.49;129769;1274;114810;-65
2024/04/06 12:56:21;;;;;;;2.60;0.60;;;;;;;24.38;43.22;100350.83;129563;1260;114752;-64
2024/04/06 12:59:24;;;;;;;2.40;0.70;;;;;;;24.23;43.27;100347.85;129575;1264;114818;-65
2024/04/06 13:02:26;;;;;;;1.60;0.60;;;;;;;24.10;43.46;100345.06;129369;1264;115287;-64
2024/04/06 13:05:28;;;;;;;1.20;0.40;;;;;;;23.97;43.56;100347.48;129304;1264;114795;-64
2024/04/06 13:08:31;;;;;;;2.00;0.50;;;;;;;23.83;43.68;100348.68;129265;1264;115399;-65
2024/04/06 13:11:33;;;;;;;1.00;0.50;;;;;;;23.71;43.91;100346.17;129314;1281;115161;-65
2024/04/06 13:14:35;;;;;;;1.70;0.80;;;;;;;23.56;44.08;100347.21;129366;1258;114759;-65
2024/04/06 13:17:39;;;;;;;5.00;0.90;;;;;;;23.40;44.35;100346.98;129530;1264;114814;-63
2024/04/06 13:20:41;;;;;;;2.30;0.50;;;;;;;23.27;44.41;100338.08;129280;1265;115517;-64
2024/04/06 13:23:43;;;;;;;2.70;0.80;;;;;;;23.18;44.57;100337.00;129461;1264;114745;-66
2024/04/06 13:26:45;;;;;;;1.80;0.90;;;;;;;23.10;44.91;100331.39;129610;1261;114828;-65
2024/04/06 13:29:47;;;;;;;1.80;0.60;;;;;;;23.04;44.81;100329.09;129202;1266;128127;-66
2024/04/06 13:32:49;;;;;;;2.90;0.50;;;;;;;22.99;44.87;100330.86;129328;1272;115140;-63
2024/04/06 13:35:51;;;;;;;1.70;0.70;;;;;;;22.97;44.95;100326.95;129410;1272;115336;-65
2024/04/06 13:38:53;;;;;;;3.30;0.80;;;;;;;22.96;45.28;100325.40;129413;1264;114766;-64
2024/04/06 13:41:55;;;;;;;1.50;0.60;;;;;;;22.97;45.17;100321.31;129491;1261;115124;-67
2024/04/06 13:44:57;;;;;;;2.10;0.60;;;;;;;22.94;44.99;100315.89;129722;1264;115123;-64
2024/04/06 13:47:59;;;;;;;1.60;0.50;;;;;;;22.94;45.25;100312.27;129411;1264;114832;-64
2024/04/06 13:51:02;;;;;;;2.90;0.60;;;;;;;22.93;45.36;100311.82;129314;1260;114783;-65